sensor_id;sensor_type;location;lat;lon;timestamp;pressure;altitude;pressure_sealevel;temperature;humidity
60642;BME280;46837;52.446;-1.930;2023-04-16T00:00:09;101095.07;;;9.49;71.11
60642;BME280;46837;52.446;-1.930;2023-04-16T00:01:09;101096.65;;;9.51;71.04
60642;BME280;46837;52.446;-1.930;2023-04-16T00:02:09;101097.55;;;9.52;70.96
60642;BME280;46837;52.446;-1.930;2023-04-16T00:03:09;101094.69;;;9.51;71.04
60642;BME280;46837;52.446;-1.930;2023-04-16T00:04:09;101097.88;;;9.52;71.00
60642;BME280;46837;52.446;-1.930;2023-04-16T00:05:09;101096.35;;;9.54;70.97
60642;BME280;46837;52.446;-1.930;2023-04-16T00:06:09;101098.84;;;9.56;70.94
60642;BME280;46837;52.446;-1.930;2023-04-16T00:07:09;101097.39;;;9.55;70.98
60642;BME280;46837;52.446;-1.930;2023-04-16T00:08:09;101098.21;;;9.55;71.06
60642;BME280;46837;52.446;-1.930;2023-04-16T00:09:09;101098.44;;;9.55;71.08
60642;BME280;46837;52.446;-1.930;2023-04-16T00:10:09;101096.26;;;9.56;71.07
60642;BME280;46837;52.446;-1.930;2023-04-16T00:11:09;101097.48;;;9.56;71.02
60642;BME280;46837;52.446;-1.930;2023-04-16T00:12:09;101093.66;;;9.56;71.06
60642;BME280;46837;52.446;-1.930;2023-04-16T00:13:09;101093.71;;;9.58;71.02
60642;BME280;46837;52.446;-1.930;2023-04-16T00:14:09;101097.71;;;9.61;70.90
60642;BME280;46837;52.446;-1.930;2023-04-16T00:15:09;101099.23;;;9.62;70.80
60642;BME280;46837;52.446;-1.930;2023-04-16T00:16:09;101097.57;;;9.66;70.71
60642;BME280;46837;52.446;-1.930;2023-04-16T00:17:09;101097.26;;;9.68;70.65
60642;BME280;46837;52.446;-1.930;2023-04-16T00:18:09;101093.85;;;9.70;70.55
60642;BME280;46837;52.446;-1.930;2023-04-16T00:19:09;101093.82;;;9.71;70.56
60642;BME280;46837;52.446;-1.930;2023-04-16T00:20:09;101092.00;;;9.73;70.50
60642;BME280;46837;52.446;-1.930;2023-04-16T00:21:09;101093.68;;;9.75;70.40
60642;BME280;46837;52.446;-1.930;2023-04-16T00:22:09;101093.54;;;9.76;70.35
60642;BME280;46837;52.446;-1.930;2023-04-16T00:23:09;101093.36;;;9.78;70.30
60642;BME280;46837;52.446;-1.930;2023-04-16T00:24:09;101088.82;;;9.77;70.23
60642;BME280;46837;52.446;-1.930;2023-04-16T00:25:09;101089.27;;;9.76;70.27
60642;BME280;46837;52.446;-1.930;2023-04-16T00:26:09;101089.96;;;9.77;70.23
60642;BME280;46837;52.446;-1.930;2023-04-16T00:27:09;101087.11;;;9.77;70.14
60642;BME280;46837;52.446;-1.930;2023-04-16T00:28:09;101087.30;;;9.78;70.06
60642;BME280;46837;52.446;-1.930;2023-04-16T00:29:09;101090.06;;;9.77;70.07
60642;BME280;46837;52.446;-1.930;2023-04-16T00:30:09;101087.77;;;9.77;70.08
60642;BME280;46837;52.446;-1.930;2023-04-16T00:31:09;101088.18;;;9.75;70.19
60642;BME280;46837;52.446;-1.930;2023-04-16T00:32:09;101088.30;;;9.77;70.15
60642;BME280;46837;52.446;-1.930;2023-04-16T00:33:09;101085.96;;;9.77;70.17
60642;BME280;46837;52.446;-1.930;2023-04-16T00:34:09;101085.52;;;9.78;70.16
60642;BME280;46837;52.446;-1.930;2023-04-16T00:35:09;101086.21;;;9.81;70.13
60642;BME280;46837;52.446;-1.930;2023-04-16T00:36:09;101082.84;;;9.82;70.10
60642;BME280;46837;52.446;-1.930;2023-04-16T00:37:09;101085.05;;;9.83;70.07
60642;BME280;46837;52.446;-1.930;2023-04-16T00:38:09;101087.71;;;9.82;70.08
60642;BME280;46837;52.446;-1.930;2023-04-16T00:39:09;101083.95;;;9.83;70.09
60642;BME280;46837;52.446;-1.930;2023-04-16T00:40:09;101087.48;;;9.84;69.98
60642;BME280;46837;52.446;-1.930;2023-04-16T00:41:09;101083.59;;;9.86;69.96
60642;BME280;46837;52.446;-1.930;2023-04-16T00:42:09;101082.02;;;9.87;69.82
60642;BME280;46837;52.446;-1.930;2023-04-16T00:43:09;101081.34;;;9.88;69.78
60642;BME280;46837;52.446;-1.930;2023-04-16T00:44:09;101082.40;;;9.87;69.87
60642;BME280;46837;52.446;-1.930;2023-04-16T00:45:09;101082.26;;;9.88;69.83
60642;BME280;46837;52.446;-1.930;2023-04-16T00:46:11;101086.16;;;9.89;69.82
60642;BME280;46837;52.446;-1.930;2023-04-16T00:47:09;101082.39;;;9.89;69.83
60642;BME280;46837;52.446;-1.930;2023-04-16T00:48:09;101082.18;;;9.90;69.77
60642;BME280;46837;52.446;-1.930;2023-04-16T00:49:09;101082.39;;;9.89;69.80
60642;BME280;46837;52.446;-1.930;2023-04-16T00:50:09;101084.88;;;9.90;69.73
60642;BME280;46837;52.446;-1.930;2023-04-16T00:51:09;101082.98;;;9.91;69.67
60642;BME280;46837;52.446;-1.930;2023-04-16T00:52:10;101087.09;;;9.92;69.60
60642;BME280;46837;52.446;-1.930;2023-04-16T00:53:09;101084.75;;;9.92;69.59
60642;BME280;46837;52.446;-1.930;2023-04-16T00:54:09;101086.14;;;9.94;69.51
60642;BME280;46837;52.446;-1.930;2023-04-16T00:55:09;101086.29;;;9.95;69.41
60642;BME280;46837;52.446;-1.930;2023-04-16T00:56:09;101087.67;;;9.96;69.44
60642;BME280;46837;52.446;-1.930;2023-04-16T00:57:09;101087.85;;;9.97;69.46
60642;BME280;46837;52.446;-1.930;2023-04-16T00:58:09;101087.83;;;9.99;69.43
60642;BME280;46837;52.446;-1.930;2023-04-16T00:59:09;101087.73;;;9.99;69.37
60642;BME280;46837;52.446;-1.930;2023-04-16T01:00:09;101088.95;;;10.00;69.33
60642;BME280;46837;52.446;-1.930;2023-04-16T01:01:09;101091.41;;;10.00;69.32
60642;BME280;46837;52.446;-1.930;2023-04-16T01:02:09;101089.34;;;10.00;69.39
60642;BME280;46837;52.446;-1.930;2023-04-16T01:03:09;101095.13;;;10.01;69.38
60642;BME280;46837;52.446;-1.930;2023-04-16T01:04:09;101093.42;;;10.02;69.30
60642;BME280;46837;52.446;-1.930;2023-04-16T01:05:09;101095.59;;;10.02;69.42
60642;BME280;46837;52.446;-1.930;2023-04-16T01:06:09;101094.12;;;10.02;69.51
60642;BME280;46837;52.446;-1.930;2023-04-16T01:07:09;101097.35;;;10.02;69.59
60642;BME280;46837;52.446;-1.930;2023-04-16T01:08:16;101095.50;;;10.02;69.49
60642;BME280;46837;52.446;-1.930;2023-04-16T01:09:09;101093.93;;;10.04;69.39
60642;BME280;46837;52.446;-1.930;2023-04-16T01:10:09;101098.25;;;10.06;69.31
60642;BME280;46837;52.446;-1.930;2023-04-16T01:11:09;101096.53;;;10.05;69.42
60642;BME280;46837;52.446;-1.930;2023-04-16T01:12:09;101097.39;;;10.07;69.26
60642;BME280;46837;52.446;-1.930;2023-04-16T01:13:09;101096.31;;;10.07;69.23
60642;BME280;46837;52.446;-1.930;2023-04-16T01:14:09;101097.84;;;10.08;69.24
60642;BME280;46837;52.446;-1.930;2023-04-16T01:15:09;101100.64;;;10.09;69.27
60642;BME280;46837;52.446;-1.930;2023-04-16T01:16:10;101100.84;;;10.10;69.21
60642;BME280;46837;52.446;-1.930;2023-04-16T01:17:09;101100.14;;;10.11;69.14
60642;BME280;46837;52.446;-1.930;2023-04-16T01:18:13;101103.64;;;10.08;69.25
60642;BME280;46837;52.446;-1.930;2023-04-16T01:19:09;101100.59;;;10.09;69.32
60642;BME280;46837;52.446;-1.930;2023-04-16T01:20:09;101102.46;;;10.09;69.21
60642;BME280;46837;52.446;-1.930;2023-04-16T01:21:09;101099.60;;;10.11;69.13
60642;BME280;46837;52.446;-1.930;2023-04-16T01:22:09;101102.49;;;10.11;69.08
60642;BME280;46837;52.446;-1.930;2023-04-16T01:23:09;101103.04;;;10.13;68.94
60642;BME280;46837;52.446;-1.930;2023-04-16T01:24:09;101101.84;;;10.14;68.87
60642;BME280;46837;52.446;-1.930;2023-04-16T01:25:12;101104.21;;;10.12;68.93
60642;BME280;46837;52.446;-1.930;2023-04-16T01:26:09;101103.31;;;10.08;68.92
60642;BME280;46837;52.446;-1.930;2023-04-16T01:27:09;101103.51;;;10.10;68.84
60642;BME280;46837;52.446;-1.930;2023-04-16T01:28:09;101106.44;;;10.09;68.79
60642;BME280;46837;52.446;-1.930;2023-04-16T01:29:09;101104.59;;;10.07;68.85
60642;BME280;46837;52.446;-1.930;2023-04-16T01:30:09;101104.97;;;10.07;68.92
60642;BME280;46837;52.446;-1.930;2023-04-16T01:31:09;101105.95;;;10.09;68.88
60642;BME280;46837;52.446;-1.930;2023-04-16T01:32:09;101102.69;;;10.10;68.71
60642;BME280;46837;52.446;-1.930;2023-04-16T01:33:10;101104.34;;;10.05;68.90
60642;BME280;46837;52.446;-1.930;2023-04-16T01:34:09;101103.43;;;10.03;69.16
60642;BME280;46837;52.446;-1.930;2023-04-16T01:35:09;101103.85;;;10.05;69.08
60642;BME280;46837;52.446;-1.930;2023-04-16T01:36:09;101102.92;;;10.05;68.99
60642;BME280;46837;52.446;-1.930;2023-04-16T01:37:09;101103.34;;;10.07;68.79
60642;BME280;46837;52.446;-1.930;2023-04-16T01:38:09;101102.91;;;10.07;68.79
60642;BME280;46837;52.446;-1.930;2023-04-16T01:39:09;101104.27;;;10.08;68.73
60642;BME280;46837;52.446;-1.930;2023-04-16T01:40:09;101104.71;;;10.10;68.81
60642;BME280;46837;52.446;-1.930;2023-04-16T01:41:09;101103.62;;;10.08;68.61
60642;BME280;46837;52.446;-1.930;2023-04-16T01:42:09;101103.47;;;10.08;68.75
60642;BME280;46837;52.446;-1.930;2023-04-16T01:43:09;101106.78;;;10.04;68.74
60642;BME280;46837;52.446;-1.930;2023-04-16T01:44:09;101105.63;;;10.04;68.84
60642;BME280;46837;52.446;-1.930;2023-04-16T01:45:09;101103.82;;;10.06;68.82
60642;BME280;46837;52.446;-1.930;2023-04-16T01:46:14;101105.21;;;10.08;68.72
60642;BME280;46837;52.446;-1.930;2023-04-16T01:47:09;101101.86;;;10.09;68.71
60642;BME280;46837;52.446;-1.930;2023-04-16T01:48:09;101103.24;;;10.08;68.75
60642;BME280;46837;52.446;-1.930;2023-04-16T01:49:09;101103.75;;;10.09;68.80
60642;BME280;46837;52.446;-1.930;2023-04-16T01:50:09;101105.00;;;10.05;68.91
60642;BME280;46837;52.446;-1.930;2023-04-16T01:51:09;101101.41;;;10.06;68.98
60642;BME280;46837;52.446;-1.930;2023-04-16T01:52:10;101101.98;;;10.04;68.93
60642;BME280;46837;52.446;-1.930;2023-04-16T01:53:09;101098.29;;;10.01;69.08
60642;BME280;46837;52.446;-1.930;2023-04-16T01:54:09;101098.32;;;9.97;69.12
60642;BME280;46837;52.446;-1.930;2023-04-16T01:55:09;101095.96;;;9.92;69.12
60642;BME280;46837;52.446;-1.930;2023-04-16T01:56:09;101096.40;;;9.93;69.31
60642;BME280;46837;52.446;-1.930;2023-04-16T01:57:09;101096.17;;;9.93;69.12
60642;BME280;46837;52.446;-1.930;2023-04-16T01:58:09;101098.60;;;9.96;69.10
60642;BME280;46837;52.446;-1.930;2023-04-16T01:59:09;101096.05;;;9.95;69.13
60642;BME280;46837;52.446;-1.930;2023-04-16T02:00:09;101097.10;;;9.95;69.22
60642;BME280;46837;52.446;-1.930;2023-04-16T02:01:09;101096.14;;;9.94;69.18
60642;BME280;46837;52.446;-1.930;2023-04-16T02:02:09;101097.18;;;9.97;69.15
60642;BME280;46837;52.446;-1.930;2023-04-16T02:03:09;101097.78;;;9.96;69.03
60642;BME280;46837;52.446;-1.930;2023-04-16T02:04:09;101097.36;;;9.95;69.20
60642;BME280;46837;52.446;-1.930;2023-04-16T02:05:09;101097.15;;;9.98;69.14
60642;BME280;46837;52.446;-1.930;2023-04-16T02:06:09;101096.73;;;9.98;69.19
60642;BME280;46837;52.446;-1.930;2023-04-16T02:07:09;101098.29;;;10.00;69.11
60642;BME280;46837;52.446;-1.930;2023-04-16T02:08:09;101097.96;;;10.00;69.01
60642;BME280;46837;52.446;-1.930;2023-04-16T02:09:09;101097.75;;;10.03;68.92
60642;BME280;46837;52.446;-1.930;2023-04-16T02:10:09;101100.55;;;10.03;68.94
60642;BME280;46837;52.446;-1.930;2023-04-16T02:11:09;101095.03;;;10.04;68.92
60642;BME280;46837;52.446;-1.930;2023-04-16T02:12:09;101095.32;;;10.02;68.85
60642;BME280;46837;52.446;-1.930;2023-04-16T02:13:09;101093.23;;;10.01;68.89
60642;BME280;46837;52.446;-1.930;2023-04-16T02:14:09;101093.13;;;10.04;68.82
60642;BME280;46837;52.446;-1.930;2023-04-16T02:15:09;101094.37;;;10.06;68.72
60642;BME280;46837;52.446;-1.930;2023-04-16T02:16:09;101093.55;;;10.06;68.68
60642;BME280;46837;52.446;-1.930;2023-04-16T02:17:09;101092.47;;;10.07;68.69
60642;BME280;46837;52.446;-1.930;2023-04-16T02:18:09;101092.80;;;10.07;68.68
60642;BME280;46837;52.446;-1.930;2023-04-16T02:19:09;101093.15;;;10.06;68.83
60642;BME280;46837;52.446;-1.930;2023-04-16T02:20:10;101088.77;;;10.07;68.80
60642;BME280;46837;52.446;-1.930;2023-04-16T02:21:09;101087.89;;;10.07;68.87
60642;BME280;46837;52.446;-1.930;2023-04-16T02:22:09;101087.95;;;10.07;68.92
60642;BME280;46837;52.446;-1.930;2023-04-16T02:23:09;101090.24;;;10.07;68.85
60642;BME280;46837;52.446;-1.930;2023-04-16T02:24:09;101086.81;;;10.08;68.75
60642;BME280;46837;52.446;-1.930;2023-04-16T02:25:09;101089.82;;;10.11;68.69
60642;BME280;46837;52.446;-1.930;2023-04-16T02:26:09;101086.59;;;10.11;68.63
60642;BME280;46837;52.446;-1.930;2023-04-16T02:27:09;101084.22;;;10.12;68.56
60642;BME280;46837;52.446;-1.930;2023-04-16T02:28:13;101085.67;;;10.13;68.67
60642;BME280;46837;52.446;-1.930;2023-04-16T02:29:09;101084.38;;;10.15;68.58
60642;BME280;46837;52.446;-1.930;2023-04-16T02:30:09;101079.94;;;10.14;68.64
60642;BME280;46837;52.446;-1.930;2023-04-16T02:31:09;101083.99;;;10.15;68.77
60642;BME280;46837;52.446;-1.930;2023-04-16T02:32:09;101080.94;;;10.14;68.72
60642;BME280;46837;52.446;-1.930;2023-04-16T02:33:09;101082.11;;;10.16;68.65
60642;BME280;46837;52.446;-1.930;2023-04-16T02:34:09;101079.61;;;10.13;68.65
60642;BME280;46837;52.446;-1.930;2023-04-16T02:35:09;101081.13;;;10.13;68.86
60642;BME280;46837;52.446;-1.930;2023-04-16T02:36:09;101080.32;;;10.11;69.12
60642;BME280;46837;52.446;-1.930;2023-04-16T02:37:09;101081.75;;;10.12;69.01
60642;BME280;46837;52.446;-1.930;2023-04-16T02:38:09;101079.45;;;10.11;68.95
60642;BME280;46837;52.446;-1.930;2023-04-16T02:39:09;101080.01;;;10.12;68.85
60642;BME280;46837;52.446;-1.930;2023-04-16T02:40:09;101077.54;;;10.11;68.87
60642;BME280;46837;52.446;-1.930;2023-04-16T02:41:09;101073.62;;;10.12;68.98
60642;BME280;46837;52.446;-1.930;2023-04-16T02:42:09;101072.10;;;10.10;69.11
60642;BME280;46837;52.446;-1.930;2023-04-16T02:43:09;101076.39;;;10.09;69.16
60642;BME280;46837;52.446;-1.930;2023-04-16T02:44:09;101075.86;;;10.06;69.05
60642;BME280;46837;52.446;-1.930;2023-04-16T02:45:09;101076.08;;;10.04;69.28
60642;BME280;46837;52.446;-1.930;2023-04-16T02:46:09;101073.00;;;10.06;69.25
60642;BME280;46837;52.446;-1.930;2023-04-16T02:47:09;101071.78;;;10.07;69.25
60642;BME280;46837;52.446;-1.930;2023-04-16T02:48:09;101072.33;;;10.05;69.10
60642;BME280;46837;52.446;-1.930;2023-04-16T02:49:09;101071.95;;;10.05;69.11
60642;BME280;46837;52.446;-1.930;2023-04-16T02:50:09;101072.30;;;10.06;68.98
60642;BME280;46837;52.446;-1.930;2023-04-16T02:51:09;101073.89;;;10.06;68.98
60642;BME280;46837;52.446;-1.930;2023-04-16T02:52:09;101073.28;;;10.06;69.04
60642;BME280;46837;52.446;-1.930;2023-04-16T02:53:09;101075.09;;;10.06;69.13
60642;BME280;46837;52.446;-1.930;2023-04-16T02:54:09;101069.11;;;10.07;69.14
60642;BME280;46837;52.446;-1.930;2023-04-16T02:55:09;101070.51;;;10.09;69.09
60642;BME280;46837;52.446;-1.930;2023-04-16T02:56:09;101071.18;;;10.05;69.07
60642;BME280;46837;52.446;-1.930;2023-04-16T02:57:09;101071.06;;;10.03;69.18
60642;BME280;46837;52.446;-1.930;2023-04-16T02:58:09;101074.23;;;10.04;69.16
60642;BME280;46837;52.446;-1.930;2023-04-16T02:59:09;101072.76;;;10.01;69.30
60642;BME280;46837;52.446;-1.930;2023-04-16T03:00:09;101068.71;;;10.04;69.24
60642;BME280;46837;52.446;-1.930;2023-04-16T03:01:09;101069.96;;;10.03;69.21
60642;BME280;46837;52.446;-1.930;2023-04-16T03:02:09;101072.46;;;10.00;69.44
60642;BME280;46837;52.446;-1.930;2023-04-16T03:03:09;101069.01;;;10.02;69.41
60642;BME280;46837;52.446;-1.930;2023-04-16T03:04:09;101068.70;;;10.03;69.31
60642;BME280;46837;52.446;-1.930;2023-04-16T03:05:09;101068.59;;;10.03;69.40
60642;BME280;46837;52.446;-1.930;2023-04-16T03:06:09;101067.39;;;10.00;69.48
60642;BME280;46837;52.446;-1.930;2023-04-16T03:07:09;101068.76;;;10.01;69.55
60642;BME280;46837;52.446;-1.930;2023-04-16T03:08:09;101067.04;;;10.02;69.56
60642;BME280;46837;52.446;-1.930;2023-04-16T03:09:09;101064.61;;;10.00;69.57
60642;BME280;46837;52.446;-1.930;2023-04-16T03:10:09;101064.50;;;10.01;69.50
60642;BME280;46837;52.446;-1.930;2023-04-16T03:11:09;101058.11;;;10.00;69.59
60642;BME280;46837;52.446;-1.930;2023-04-16T03:12:09;101058.50;;;10.01;69.58
60642;BME280;46837;52.446;-1.930;2023-04-16T03:13:09;101057.92;;;10.02;69.63
60642;BME280;46837;52.446;-1.930;2023-04-16T03:14:09;101055.99;;;10.03;69.58
60642;BME280;46837;52.446;-1.930;2023-04-16T03:15:09;101056.13;;;10.06;69.52
60642;BME280;46837;52.446;-1.930;2023-04-16T03:16:09;101055.02;;;10.02;69.65
60642;BME280;46837;52.446;-1.930;2023-04-16T03:17:09;101053.25;;;10.03;69.69
60642;BME280;46837;52.446;-1.930;2023-04-16T03:18:09;101056.03;;;10.01;69.56
60642;BME280;46837;52.446;-1.930;2023-04-16T03:19:09;101053.17;;;9.99;69.75
60642;BME280;46837;52.446;-1.930;2023-04-16T03:20:09;101051.66;;;9.98;69.82
60642;BME280;46837;52.446;-1.930;2023-04-16T03:21:09;101056.23;;;10.02;69.71
60642;BME280;46837;52.446;-1.930;2023-04-16T03:22:09;101051.45;;;10.03;69.58
60642;BME280;46837;52.446;-1.930;2023-04-16T03:23:09;101055.26;;;10.06;69.51
60642;BME280;46837;52.446;-1.930;2023-04-16T03:24:09;101053.74;;;10.06;69.42
60642;BME280;46837;52.446;-1.930;2023-04-16T03:25:09;101051.19;;;10.07;69.36
60642;BME280;46837;52.446;-1.930;2023-04-16T03:26:09;101050.84;;;10.06;69.44
60642;BME280;46837;52.446;-1.930;2023-04-16T03:27:09;101052.06;;;10.07;69.40
60642;BME280;46837;52.446;-1.930;2023-04-16T03:28:09;101051.33;;;10.06;69.37
60642;BME280;46837;52.446;-1.930;2023-04-16T03:29:09;101052.45;;;10.07;69.39
60642;BME280;46837;52.446;-1.930;2023-04-16T03:30:12;101048.79;;;10.10;69.29
60642;BME280;46837;52.446;-1.930;2023-04-16T03:31:09;101048.28;;;10.09;69.23
60642;BME280;46837;52.446;-1.930;2023-04-16T03:32:09;101049.17;;;10.10;69.25
60642;BME280;46837;52.446;-1.930;2023-04-16T03:33:09;101050.29;;;10.12;69.20
60642;BME280;46837;52.446;-1.930;2023-04-16T03:34:09;101052.01;;;10.13;69.14
60642;BME280;46837;52.446;-1.930;2023-04-16T03:35:09;101049.68;;;10.10;69.18
60642;BME280;46837;52.446;-1.930;2023-04-16T03:36:09;101049.00;;;10.12;69.17
60642;BME280;46837;52.446;-1.930;2023-04-16T03:37:09;101049.57;;;10.14;69.17
60642;BME280;46837;52.446;-1.930;2023-04-16T03:38:09;101046.86;;;10.15;69.10
60642;BME280;46837;52.446;-1.930;2023-04-16T03:39:09;101048.69;;;10.13;69.04
60642;BME280;46837;52.446;-1.930;2023-04-16T03:40:09;101049.44;;;10.13;69.08
60642;BME280;46837;52.446;-1.930;2023-04-16T03:41:09;101048.86;;;10.11;69.12
60642;BME280;46837;52.446;-1.930;2023-04-16T03:42:09;101051.09;;;10.10;69.22
60642;BME280;46837;52.446;-1.930;2023-04-16T03:43:09;101050.72;;;10.08;69.28
60642;BME280;46837;52.446;-1.930;2023-04-16T03:44:09;101049.64;;;10.09;69.29
60642;BME280;46837;52.446;-1.930;2023-04-16T03:45:09;101051.39;;;10.09;69.37
60642;BME280;46837;52.446;-1.930;2023-04-16T03:46:09;101052.89;;;10.07;69.47
60642;BME280;46837;52.446;-1.930;2023-04-16T03:47:09;101053.63;;;10.00;69.66
60642;BME280;46837;52.446;-1.930;2023-04-16T03:48:09;101052.81;;;10.03;69.72
60642;BME280;46837;52.446;-1.930;2023-04-16T03:49:09;101052.76;;;10.03;69.71
60642;BME280;46837;52.446;-1.930;2023-04-16T03:50:09;101051.02;;;10.04;69.74
60642;BME280;46837;52.446;-1.930;2023-04-16T03:51:09;101049.15;;;10.06;69.82
60642;BME280;46837;52.446;-1.930;2023-04-16T03:52:09;101048.63;;;10.07;69.83
60642;BME280;46837;52.446;-1.930;2023-04-16T03:53:09;101050.82;;;10.08;69.90
60642;BME280;46837;52.446;-1.930;2023-04-16T03:54:09;101047.91;;;10.08;69.96
60642;BME280;46837;52.446;-1.930;2023-04-16T03:55:09;101049.50;;;10.08;70.09
60642;BME280;46837;52.446;-1.930;2023-04-16T03:56:09;101054.10;;;10.10;70.07
60642;BME280;46837;52.446;-1.930;2023-04-16T03:57:09;101048.93;;;10.09;70.13
60642;BME280;46837;52.446;-1.930;2023-04-16T03:58:09;101046.67;;;10.07;70.20
60642;BME280;46837;52.446;-1.930;2023-04-16T03:59:09;101048.84;;;10.10;70.19
60642;BME280;46837;52.446;-1.930;2023-04-16T04:00:09;101049.95;;;10.08;70.44
60642;BME280;46837;52.446;-1.930;2023-04-16T04:01:09;101050.90;;;10.09;70.52
60642;BME280;46837;52.446;-1.930;2023-04-16T04:02:09;101048.96;;;10.08;70.57
60642;BME280;46837;52.446;-1.930;2023-04-16T04:03:09;101044.89;;;10.06;70.60
60642;BME280;46837;52.446;-1.930;2023-04-16T04:04:09;101050.23;;;10.08;70.52
60642;BME280;46837;52.446;-1.930;2023-04-16T04:05:09;101049.40;;;10.11;70.61
60642;BME280;46837;52.446;-1.930;2023-04-16T04:06:09;101043.01;;;10.11;70.69
60642;BME280;46837;52.446;-1.930;2023-04-16T04:07:09;101043.99;;;10.11;70.70
60642;BME280;46837;52.446;-1.930;2023-04-16T04:08:09;101042.40;;;10.10;70.81
60642;BME280;46837;52.446;-1.930;2023-04-16T04:09:09;101043.93;;;10.08;70.91
60642;BME280;46837;52.446;-1.930;2023-04-16T04:10:09;101044.80;;;10.04;71.23
60642;BME280;46837;52.446;-1.930;2023-04-16T04:11:09;101043.55;;;10.07;71.04
60642;BME280;46837;52.446;-1.930;2023-04-16T04:12:09;101042.78;;;10.10;70.89
60642;BME280;46837;52.446;-1.930;2023-04-16T04:13:09;101042.91;;;10.11;70.80
60642;BME280;46837;52.446;-1.930;2023-04-16T04:14:09;101041.84;;;10.12;70.81
60642;BME280;46837;52.446;-1.930;2023-04-16T04:15:09;101042.28;;;10.12;70.92
60642;BME280;46837;52.446;-1.930;2023-04-16T04:16:09;101041.30;;;10.12;71.01
60642;BME280;46837;52.446;-1.930;2023-04-16T04:17:09;101042.48;;;10.15;70.95
60642;BME280;46837;52.446;-1.930;2023-04-16T04:18:09;101041.29;;;10.15;70.88
60642;BME280;46837;52.446;-1.930;2023-04-16T04:19:09;101043.83;;;10.16;70.97
60642;BME280;46837;52.446;-1.930;2023-04-16T04:20:09;101047.23;;;10.17;70.93
60642;BME280;46837;52.446;-1.930;2023-04-16T04:21:09;101045.87;;;10.18;70.92
60642;BME280;46837;52.446;-1.930;2023-04-16T04:22:09;101044.83;;;10.15;71.00
60642;BME280;46837;52.446;-1.930;2023-04-16T04:23:09;101049.52;;;10.14;71.10
60642;BME280;46837;52.446;-1.930;2023-04-16T04:24:09;101046.71;;;10.16;71.15
60642;BME280;46837;52.446;-1.930;2023-04-16T04:25:09;101047.62;;;10.12;71.43
60642;BME280;46837;52.446;-1.930;2023-04-16T04:26:09;101048.40;;;10.08;71.47
60642;BME280;46837;52.446;-1.930;2023-04-16T04:27:09;101051.98;;;10.11;71.43
60642;BME280;46837;52.446;-1.930;2023-04-16T04:28:11;101046.77;;;10.13;71.26
60642;BME280;46837;52.446;-1.930;2023-04-16T04:29:09;101049.07;;;10.10;71.32
60642;BME280;46837;52.446;-1.930;2023-04-16T04:30:09;101045.62;;;10.08;71.52
60642;BME280;46837;52.446;-1.930;2023-04-16T04:31:09;101049.06;;;10.08;71.57
60642;BME280;46837;52.446;-1.930;2023-04-16T04:32:09;101051.09;;;10.07;71.64
60642;BME280;46837;52.446;-1.930;2023-04-16T04:33:09;101051.09;;;10.08;71.59
60642;BME280;46837;52.446;-1.930;2023-04-16T04:34:09;101050.41;;;10.09;71.50
60642;BME280;46837;52.446;-1.930;2023-04-16T04:35:09;101050.11;;;10.08;71.55
60642;BME280;46837;52.446;-1.930;2023-04-16T04:36:09;101050.70;;;10.07;71.68
60642;BME280;46837;52.446;-1.930;2023-04-16T04:37:09;101054.05;;;10.02;71.79
60642;BME280;46837;52.446;-1.930;2023-04-16T04:38:09;101051.67;;;10.01;71.95
60642;BME280;46837;52.446;-1.930;2023-04-16T04:39:09;101054.16;;;9.95;72.09
60642;BME280;46837;52.446;-1.930;2023-04-16T04:40:09;101051.78;;;9.95;72.03
60642;BME280;46837;52.446;-1.930;2023-04-16T04:41:09;101053.31;;;9.90;72.04
60642;BME280;46837;52.446;-1.930;2023-04-16T04:42:09;101054.57;;;9.89;71.98
60642;BME280;46837;52.446;-1.930;2023-04-16T04:43:09;101055.05;;;9.87;71.99
60642;BME280;46837;52.446;-1.930;2023-04-16T04:44:09;101055.38;;;9.87;72.16
60642;BME280;46837;52.446;-1.930;2023-04-16T04:45:09;101053.50;;;9.85;72.16
60642;BME280;46837;52.446;-1.930;2023-04-16T04:46:09;101057.22;;;9.86;72.03
60642;BME280;46837;52.446;-1.930;2023-04-16T04:47:09;101054.00;;;9.86;72.17
60642;BME280;46837;52.446;-1.930;2023-04-16T04:48:09;101056.78;;;9.85;72.09
60642;BME280;46837;52.446;-1.930;2023-04-16T04:49:09;101058.86;;;9.88;72.00
60642;BME280;46837;52.446;-1.930;2023-04-16T04:50:09;101055.64;;;9.89;71.95
60642;BME280;46837;52.446;-1.930;2023-04-16T04:51:09;101057.72;;;9.87;72.11
60642;BME280;46837;52.446;-1.930;2023-04-16T04:52:09;101060.90;;;9.87;72.18
60642;BME280;46837;52.446;-1.930;2023-04-16T04:53:11;101058.95;;;9.88;72.24
60642;BME280;46837;52.446;-1.930;2023-04-16T04:54:09;101056.59;;;9.90;72.08
60642;BME280;46837;52.446;-1.930;2023-04-16T04:55:09;101059.25;;;9.92;71.99
60642;BME280;46837;52.446;-1.930;2023-04-16T04:56:09;101061.47;;;9.91;72.11
60642;BME280;46837;52.446;-1.930;2023-04-16T04:57:09;101060.36;;;9.90;72.22
60642;BME280;46837;52.446;-1.930;2023-04-16T04:58:09;101061.00;;;9.92;72.20
60642;BME280;46837;52.446;-1.930;2023-04-16T04:59:09;101058.91;;;9.95;72.11
60642;BME280;46837;52.446;-1.930;2023-04-16T05:00:09;101059.74;;;9.95;72.10
60642;BME280;46837;52.446;-1.930;2023-04-16T05:01:09;101060.48;;;9.93;72.19
60642;BME280;46837;52.446;-1.930;2023-04-16T05:02:09;101059.15;;;9.92;72.40
60642;BME280;46837;52.446;-1.930;2023-04-16T05:03:10;101059.82;;;9.93;72.52
60642;BME280;46837;52.446;-1.930;2023-04-16T05:04:09;101057.00;;;9.94;72.61
60642;BME280;46837;52.446;-1.930;2023-04-16T05:05:09;101056.06;;;9.97;72.43
60642;BME280;46837;52.446;-1.930;2023-04-16T05:06:09;101058.89;;;9.96;72.47
60642;BME280;46837;52.446;-1.930;2023-04-16T05:07:09;101059.87;;;9.98;72.40
60642;BME280;46837;52.446;-1.930;2023-04-16T05:08:09;101059.84;;;10.00;72.34
60642;BME280;46837;52.446;-1.930;2023-04-16T05:09:09;101057.07;;;10.00;72.50
60642;BME280;46837;52.446;-1.930;2023-04-16T05:10:09;101063.62;;;10.00;72.59